createdAt,value
2019-01-30T00:01:04.172Z,3.93
2019-01-30T00:03:35.532Z,4.00
2019-01-30T00:06:06.736Z,4.23
2019-01-30T00:08:38.093Z,3.90
2019-01-30T00:11:08.910Z,3.90
2019-01-30T00:13:39.716Z,3.80
2019-01-30T00:16:10.893Z,3.63
2019-01-30T00:18:41.713Z,3.53
2019-01-30T00:21:12.625Z,3.20
2019-01-30T00:23:43.949Z,3.73
2019-01-30T00:26:14.913Z,3.40
2019-01-30T00:28:45.864Z,3.33
2019-01-30T00:31:16.619Z,3.53
2019-01-30T00:33:47.337Z,3.73
2019-01-30T00:36:23.525Z,3.70
2019-01-30T00:38:54.329Z,3.10
2019-01-30T00:41:25.169Z,3.27
2019-01-30T00:43:56.413Z,2.80
2019-01-30T00:46:27.164Z,2.70
2019-01-30T00:48:58.393Z,3.40
2019-01-30T00:51:29.120Z,3.30
2019-01-30T00:54:00.060Z,3.40
2019-01-30T00:56:30.835Z,3.13
2019-01-30T00:59:01.908Z,3.33
2019-01-30T01:01:32.492Z,3.17
2019-01-30T01:04:04.350Z,3.33
2019-01-30T01:06:35.085Z,4.10
2019-01-30T01:09:09.790Z,3.60
2019-01-30T01:11:40.511Z,3.30
2019-01-30T01:14:11.766Z,3.37
2019-01-30T01:16:42.994Z,3.63
2019-01-30T01:19:13.759Z,3.53
2019-01-30T01:21:44.425Z,3.60
2019-01-30T01:24:15.137Z,3.30
2019-01-30T01:26:45.665Z,3.53
2019-01-30T01:29:16.260Z,3.40
2019-01-30T01:31:47.072Z,3.57
2019-01-30T01:34:17.660Z,3.70
2019-01-30T01:36:48.796Z,3.70
2019-01-30T01:39:19.847Z,3.47
2019-01-30T01:41:50.614Z,3.30
2019-01-30T01:44:21.716Z,3.47
2019-01-30T01:46:52.696Z,3.67
2019-01-30T01:49:23.405Z,3.43
2019-01-30T01:51:54.157Z,3.30
2019-01-30T01:54:25.428Z,3.60
2019-01-30T01:56:56.138Z,3.50
2019-01-30T01:59:27.072Z,3.47
2019-01-30T02:01:57.826Z,3.60
2019-01-30T02:04:28.629Z,3.47
2019-01-30T02:06:59.488Z,3.50
2019-01-30T02:09:30.436Z,3.43
2019-01-30T02:12:01.249Z,3.90
2019-01-30T02:14:31.968Z,3.73
2019-01-30T02:17:02.836Z,4.03
2019-01-30T02:19:33.672Z,3.73
2019-01-30T02:22:04.463Z,3.53
2019-01-30T02:24:35.124Z,3.97
2019-01-30T02:27:06.119Z,3.90
2019-01-30T02:29:37.136Z,4.00
2019-01-30T02:32:07.958Z,3.83
2019-01-30T02:34:38.884Z,3.60
2019-01-30T02:37:10.036Z,3.50
2019-01-30T02:39:41.070Z,3.70
2019-01-30T02:42:11.818Z,3.93
2019-01-30T02:44:43.100Z,3.53
2019-01-30T02:47:13.809Z,3.63
2019-01-30T02:49:44.800Z,3.57
2019-01-30T02:52:15.424Z,3.37
2019-01-30T02:54:46.374Z,3.60
2019-01-30T02:57:17.340Z,4.10
2019-01-30T02:59:48.548Z,3.90
2019-01-30T03:02:22.650Z,3.50
2019-01-30T03:04:53.289Z,3.73
2019-01-30T03:07:24.380Z,3.20
2019-01-30T03:10:37.661Z,3.80
2019-01-30T03:13:08.759Z,3.47
2019-01-30T03:15:39.489Z,3.60
2019-01-30T03:18:10.699Z,3.43
2019-01-30T03:20:41.792Z,3.63
2019-01-30T03:23:12.930Z,3.57
2019-01-30T03:25:44.057Z,3.50
2019-01-30T03:28:15.204Z,3.60
2019-01-30T03:30:46.501Z,3.20
2019-01-30T03:33:17.828Z,3.10
2019-01-30T03:35:48.784Z,3.60
2019-01-30T03:38:19.797Z,3.10
2019-01-30T03:40:50.928Z,3.10
2019-01-30T03:43:22.093Z,2.80
2019-01-30T03:45:53.090Z,2.83
2019-01-30T03:48:23.928Z,3.00
2019-01-30T03:50:54.959Z,3.47
2019-01-30T03:53:25.703Z,3.10
2019-01-30T03:55:56.429Z,2.93
2019-01-30T03:58:27.723Z,3.27
2019-01-30T04:00:58.514Z,3.10
2019-01-30T04:03:29.247Z,2.63
2019-01-30T04:06:20.140Z,3.17
2019-01-30T04:08:51.114Z,2.63
2019-01-30T04:11:22.077Z,2.73
2019-01-30T04:13:53.010Z,2.53
2019-01-30T04:16:23.938Z,2.70
2019-01-30T04:18:54.768Z,2.90
2019-01-30T04:21:25.657Z,2.50
2019-01-30T04:23:56.225Z,2.80
2019-01-30T04:26:27.337Z,2.60
2019-01-30T04:28:58.125Z,2.70
2019-01-30T04:31:37.837Z,2.30
2019-01-30T04:34:01.550Z,2.70
2019-01-30T04:36:32.533Z,2.80
2019-01-30T04:39:04.621Z,2.90
2019-01-30T04:41:36.157Z,2.47
2019-01-30T04:44:07.144Z,2.40
2019-01-30T04:46:38.146Z,2.63
2019-01-30T04:49:09.361Z,2.60
2019-01-30T04:51:40.094Z,2.30
2019-01-30T04:54:11.320Z,2.50
2019-01-30T04:56:42.293Z,2.17
2019-01-30T04:59:13.290Z,2.73
2019-01-30T05:01:49.647Z,2.50
2019-01-30T05:04:16.818Z,2.70
2019-01-30T05:06:47.788Z,2.37
2019-01-30T05:09:18.484Z,2.70
2019-01-30T05:11:49.218Z,2.57
2019-01-30T05:14:20.157Z,2.33
2019-01-30T05:16:51.096Z,2.60
2019-01-30T05:19:22.137Z,2.23
2019-01-30T05:21:52.998Z,2.50
2019-01-30T05:24:23.912Z,2.37
2019-01-30T05:26:55.084Z,2.70
2019-01-30T05:29:25.917Z,2.93
2019-01-30T05:32:01.391Z,2.30
2019-01-30T05:34:29.100Z,2.73
2019-01-30T05:37:01.596Z,2.33
2019-01-30T05:39:32.836Z,2.30
2019-01-30T05:42:03.538Z,2.40
2019-01-30T05:44:34.818Z,2.50
2019-01-30T05:47:05.521Z,2.43
2019-01-30T05:49:36.537Z,2.63
2019-01-30T05:52:07.434Z,2.27
2019-01-30T05:54:38.509Z,2.40
2019-01-30T05:57:09.716Z,2.37
2019-01-30T05:59:40.332Z,2.20
2019-01-30T06:02:12.373Z,2.43
2019-01-30T06:04:43.706Z,2.50
2019-01-30T06:07:15.194Z,2.30
2019-01-30T06:09:45.900Z,2.50
2019-01-30T06:12:16.664Z,2.63
2019-01-30T06:14:47.424Z,2.63
2019-01-30T06:17:18.848Z,2.33
2019-01-30T06:19:51.911Z,2.40
2019-01-30T06:22:22.735Z,2.60
2019-01-30T06:24:54.088Z,2.70
2019-01-30T06:27:25.097Z,2.70
2019-01-30T06:29:56.058Z,2.80
2019-01-30T06:32:26.966Z,2.40
2019-01-30T06:34:57.677Z,2.67
2019-01-30T06:37:28.536Z,2.80
2019-01-30T06:39:59.725Z,2.77
2019-01-30T06:42:31.036Z,2.80
2019-01-30T06:45:01.961Z,2.80
2019-01-30T06:47:34.088Z,2.97
2019-01-30T06:50:06.101Z,3.23
2019-01-30T06:52:37.360Z,3.13
2019-01-30T06:55:08.496Z,3.10
2019-01-30T06:57:39.454Z,3.10
2019-01-30T07:00:16.104Z,3.53
2019-01-30T07:02:47.129Z,2.87
2019-01-30T07:05:18.188Z,3.30
2019-01-30T07:07:49.961Z,3.03
2019-01-30T07:10:25.628Z,3.23
2019-01-30T07:12:56.721Z,3.33
2019-01-30T07:15:27.709Z,2.83
2019-01-30T07:17:58.429Z,3.37
2019-01-30T07:20:31.208Z,3.47
2019-01-30T07:23:01.828Z,3.47
2019-01-30T07:25:33.021Z,3.50
2019-01-30T07:28:03.730Z,3.53
2019-01-30T07:30:36.514Z,3.73
2019-01-30T07:33:08.460Z,3.33
2019-01-30T07:35:39.608Z,3.63
2019-01-30T07:38:11.676Z,3.57
2019-01-30T07:40:42.417Z,3.80
2019-01-30T07:43:13.445Z,3.80
2019-01-30T07:45:44.301Z,4.00
2019-01-30T07:48:15.324Z,3.63
2019-01-30T07:50:46.589Z,4.70
2019-01-30T07:53:17.493Z,4.10
2019-01-30T07:55:48.482Z,4.07
2019-01-30T07:58:19.193Z,4.80
2019-01-30T08:00:50.284Z,4.67
2019-01-30T08:03:21.276Z,5.50
2019-01-30T08:05:52.429Z,4.33
2019-01-30T08:08:23.168Z,5.13
2019-01-30T08:10:54.244Z,5.20
2019-01-30T08:13:25.717Z,5.37
2019-01-30T08:15:56.564Z,5.13
2019-01-30T08:18:27.820Z,5.20
2019-01-30T08:20:58.552Z,5.30
2019-01-30T08:23:29.590Z,4.60
2019-01-30T08:26:00.653Z,5.07
2019-01-30T08:28:32.144Z,5.37
2019-01-30T08:31:03.097Z,5.17
2019-01-30T08:33:33.693Z,6.20
2019-01-30T08:36:04.823Z,6.37
2019-01-30T08:38:35.961Z,5.40
2019-01-30T08:41:07.249Z,5.77
2019-01-30T08:43:38.179Z,5.87
2019-01-30T08:46:10.244Z,5.37
2019-01-30T08:48:41.251Z,5.50
2019-01-30T08:51:12.737Z,5.60
2019-01-30T08:53:43.484Z,5.17
2019-01-30T08:56:14.431Z,5.90
2019-01-30T08:58:45.123Z,5.63
2019-01-30T09:01:16.405Z,5.33
2019-01-30T09:03:47.077Z,5.43
2019-01-30T09:06:17.894Z,5.90
2019-01-30T09:08:49.175Z,6.33
2019-01-30T09:11:20.148Z,5.60
2019-01-30T09:13:51.571Z,6.27
2019-01-30T09:16:22.198Z,6.07
2019-01-30T09:18:53.248Z,5.87
2019-01-30T09:21:24.084Z,6.37
2019-01-30T09:23:54.958Z,6.53
2019-01-30T09:26:26.042Z,6.33
2019-01-30T09:28:57.052Z,5.47
2019-01-30T09:31:27.819Z,6.27
2019-01-30T09:33:58.589Z,5.20
2019-01-30T09:36:29.631Z,5.90
2019-01-30T09:39:00.860Z,6.13
2019-01-30T09:41:33.515Z,6.20
2019-01-30T09:44:04.613Z,6.20
2019-01-30T09:46:35.615Z,5.63
2019-01-30T09:49:06.923Z,6.03
2019-01-30T09:51:38.052Z,6.07
2019-01-30T09:54:09.077Z,5.80
2019-01-30T09:56:39.849Z,5.73
2019-01-30T09:59:10.954Z,5.93
2019-01-30T10:01:41.951Z,5.53
2019-01-30T10:04:12.923Z,5.47
2019-01-30T10:06:43.825Z,5.60
2019-01-30T10:09:14.717Z,5.80
2019-01-30T10:11:45.612Z,5.20
2019-01-30T10:14:17.401Z,6.60
2019-01-30T10:16:48.133Z,5.80
2019-01-30T10:19:20.069Z,4.57
2019-01-30T10:21:51.072Z,4.87
2019-01-30T10:24:22.078Z,5.67
2019-01-30T10:26:53.179Z,4.83
2019-01-30T10:29:24.881Z,4.80
2019-01-30T10:31:55.569Z,5.27
2019-01-30T10:34:26.351Z,5.70
2019-01-30T10:36:57.872Z,5.37
2019-01-30T10:39:28.837Z,4.73
2019-01-30T10:41:59.596Z,5.33
2019-01-30T10:44:30.605Z,4.70
2019-01-30T10:47:01.711Z,4.90
2019-01-30T10:49:32.657Z,5.17
2019-01-30T10:52:03.447Z,4.93
2019-01-30T10:54:34.572Z,4.40
2019-01-30T10:57:05.527Z,4.20
2019-01-30T10:59:36.574Z,4.80
2019-01-30T11:02:08.229Z,4.17
2019-01-30T11:04:38.921Z,5.20
2019-01-30T11:07:09.773Z,5.07
2019-01-30T11:09:40.623Z,4.63
2019-01-30T11:12:12.183Z,4.37
2019-01-30T11:14:43.325Z,4.27
2019-01-30T11:17:14.498Z,4.17
2019-01-30T11:19:45.562Z,4.93
2019-01-30T11:22:16.765Z,4.73
2019-01-30T11:24:48.188Z,4.10
2019-01-30T11:27:18.932Z,4.63
2019-01-30T11:29:49.895Z,4.07
2019-01-30T11:32:20.947Z,4.30
2019-01-30T11:34:51.668Z,3.93
2019-01-30T11:37:22.712Z,3.93
2019-01-30T11:39:53.884Z,4.27
2019-01-30T11:42:25.101Z,4.10
2019-01-30T11:44:55.692Z,3.87
2019-01-30T11:47:26.679Z,4.13
2019-01-30T11:49:57.612Z,4.33
2019-01-30T11:52:29.677Z,3.97
2019-01-30T11:55:00.721Z,4.00
2019-01-30T11:57:33.505Z,4.30
2019-01-30T12:00:05.561Z,4.20
2019-01-30T12:02:36.740Z,4.20
2019-01-30T12:05:09.087Z,4.13
2019-01-30T12:07:40.441Z,4.33
2019-01-30T12:10:11.585Z,4.17
2019-01-30T12:12:42.728Z,4.10
2019-01-30T12:15:56.520Z,4.33
2019-01-30T12:22:35.093Z,4.07
2019-01-30T12:25:07.074Z,3.87
2019-01-30T12:27:38.194Z,3.80
2019-01-30T12:30:16.525Z,4.10
2019-01-30T12:32:47.608Z,4.43
2019-01-30T12:35:18.744Z,4.63
2019-01-30T12:37:49.421Z,4.57
2019-01-30T12:40:20.543Z,4.53
2019-01-30T12:42:51.448Z,4.33
2019-01-30T12:45:35.962Z,5.20
2019-01-30T12:48:10.696Z,4.80
2019-01-30T12:50:40.890Z,4.00
2019-01-30T12:53:11.872Z,4.50
2019-01-30T12:55:42.743Z,4.57
2019-01-30T12:58:14.185Z,4.53
2019-01-30T13:00:45.123Z,5.10
2019-01-30T13:03:16.380Z,4.57
2019-01-30T13:05:47.105Z,5.43
2019-01-30T13:08:18.159Z,5.37
2019-01-30T13:10:49.188Z,4.90
2019-01-30T13:13:20.327Z,5.20
2019-01-30T13:15:51.189Z,5.17
2019-01-30T13:18:21.992Z,5.80
2019-01-30T13:20:52.884Z,5.10
2019-01-30T13:23:34.630Z,5.40
2019-01-30T13:26:06.529Z,5.23
2019-01-30T13:28:37.330Z,5.60
2019-01-30T13:31:08.154Z,5.63
2019-01-30T13:33:39.401Z,6.10
2019-01-30T13:36:10.592Z,5.87
2019-01-30T13:38:41.552Z,6.30
2019-01-30T13:41:12.784Z,5.70
2019-01-30T13:43:43.984Z,6.07
2019-01-30T13:46:14.980Z,6.00
2019-01-30T13:48:45.938Z,6.83
2019-01-30T13:51:17.170Z,6.20
2019-01-30T13:53:48.035Z,6.23
2019-01-30T13:56:18.854Z,6.70
2019-01-30T13:58:49.965Z,6.80
2019-01-30T14:01:21.139Z,6.23
2019-01-30T14:03:52.171Z,6.33
2019-01-30T14:06:23.353Z,7.13
2019-01-30T14:08:54.458Z,6.63
2019-01-30T14:11:25.117Z,6.83
2019-01-30T14:13:56.203Z,6.90
2019-01-30T14:16:27.080Z,6.53
2019-01-30T14:19:00.779Z,7.40
2019-01-30T14:21:31.676Z,6.70
2019-01-30T14:24:02.534Z,7.27
2019-01-30T14:26:35.445Z,7.53
2019-01-30T14:29:06.735Z,7.17
2019-01-30T14:31:37.600Z,7.50
2019-01-30T14:34:08.402Z,7.33
2019-01-30T14:36:39.928Z,7.13
2019-01-30T14:39:10.972Z,7.07
2019-01-30T14:41:41.806Z,7.40
2019-01-30T14:44:12.918Z,7.63
2019-01-30T14:46:43.920Z,7.07
2019-01-30T14:49:14.877Z,7.50
2019-01-30T14:51:48.327Z,7.37
2019-01-30T14:54:19.461Z,7.53
2019-01-30T14:56:50.634Z,6.90
2019-01-30T14:59:21.679Z,7.00
2019-01-30T15:01:52.414Z,6.97
2019-01-30T15:04:23.615Z,7.27
2019-01-30T15:06:54.701Z,7.30
2019-01-30T15:09:27.963Z,7.07
2019-01-30T15:11:59.297Z,7.30
2019-01-30T15:14:30.200Z,7.37
2019-01-30T15:17:01.077Z,7.03
2019-01-30T15:19:31.874Z,7.00
2019-01-30T15:22:02.756Z,7.00
2019-01-30T15:24:33.983Z,7.07
2019-01-30T15:27:07.710Z,7.90
2019-01-30T15:29:38.837Z,7.03
2019-01-30T15:32:09.761Z,7.70
2019-01-30T15:34:40.844Z,7.83
2019-01-30T15:37:12.215Z,7.80
2019-01-30T15:39:43.673Z,7.90
2019-01-30T15:42:14.575Z,7.50
2019-01-30T15:44:45.616Z,7.57
2019-01-30T15:47:16.602Z,10.65
2019-01-30T15:49:50.281Z,8.30
2019-01-30T15:52:21.303Z,8.00
2019-01-30T15:54:52.038Z,7.70
2019-01-30T15:57:22.896Z,7.47
2019-01-30T15:59:53.825Z,7.93
2019-01-30T16:02:24.879Z,7.43
2019-01-30T16:04:55.760Z,8.07
2019-01-30T16:07:26.657Z,7.73
2019-01-30T16:09:57.695Z,8.47
2019-01-30T16:12:28.890Z,8.27
2019-01-30T16:14:59.936Z,8.30
2019-01-30T16:17:30.785Z,8.63
2019-01-30T16:20:01.601Z,7.03
2019-01-30T16:22:32.372Z,7.77
2019-01-30T16:25:09.089Z,8.47
2019-01-30T16:27:35.790Z,7.83
2019-01-30T16:30:09.233Z,7.63
2019-01-30T16:32:40.516Z,7.97
2019-01-30T16:35:14.169Z,7.87
2019-01-30T16:37:45.049Z,7.63
2019-01-30T16:40:16.573Z,7.50
2019-01-30T16:42:47.534Z,7.80
2019-01-30T16:45:20.284Z,7.83
2019-01-30T16:47:51.773Z,6.67
2019-01-30T16:50:23.080Z,7.50
2019-01-30T16:52:53.796Z,7.30
2019-01-30T16:55:24.939Z,7.20
2019-01-30T16:57:56.264Z,7.67
2019-01-30T17:00:29.269Z,7.07
2019-01-30T17:03:00.082Z,7.17
2019-01-30T17:05:31.539Z,7.27
2019-01-30T17:08:02.404Z,6.57
2019-01-30T17:10:33.385Z,6.43
2019-01-30T17:13:05.780Z,6.37
2019-01-30T17:15:36.697Z,7.10
2019-01-30T17:18:10.024Z,6.57
2019-01-30T17:20:41.286Z,6.50
2019-01-30T17:23:12.517Z,6.47
2019-01-30T17:25:44.505Z,6.77
2019-01-30T17:28:15.515Z,6.63
2019-01-30T17:30:56.156Z,6.83
2019-01-30T17:33:27.690Z,6.63
2019-01-30T17:35:58.958Z,6.83
2019-01-30T17:38:30.189Z,6.73
2019-01-30T17:41:01.512Z,6.20
2019-01-30T17:43:33.388Z,6.37
2019-01-30T17:46:04.468Z,6.07
2019-01-30T17:48:37.046Z,6.10
2019-01-30T17:51:09.048Z,6.20
2019-01-30T17:53:40.080Z,6.93
2019-01-30T17:56:10.979Z,6.63
2019-01-30T17:58:41.601Z,6.73
2019-01-30T18:01:12.578Z,6.93
2019-01-30T18:04:06.213Z,6.83
2019-01-30T18:06:38.218Z,7.00
2019-01-30T18:09:10.676Z,7.20
2019-01-30T18:11:42.168Z,6.43
2019-01-30T18:14:13.607Z,7.20
2019-01-30T18:16:44.667Z,7.43
2019-01-30T18:19:15.767Z,7.43
2019-01-30T18:21:47.023Z,7.50
2019-01-30T18:24:18.292Z,7.47
2019-01-30T18:26:49.351Z,6.73
2019-01-30T18:29:20.462Z,6.80
2019-01-30T18:31:51.661Z,6.87
2019-01-30T18:34:23.010Z,7.27
2019-01-30T18:36:54.063Z,6.93
2019-01-30T18:39:25.150Z,7.57
2019-01-30T18:41:56.073Z,7.10
2019-01-30T18:44:27.267Z,7.77
2019-01-30T18:46:58.139Z,7.37
2019-01-30T18:49:29.795Z,7.07
2019-01-30T18:52:00.756Z,7.70
2019-01-30T18:54:31.687Z,7.10
2019-01-30T18:57:03.657Z,7.03
2019-01-30T18:59:34.905Z,7.40
2019-01-30T19:02:06.250Z,6.93
2019-01-30T19:04:37.571Z,7.67
2019-01-30T19:07:08.859Z,7.13
2019-01-30T19:09:39.978Z,7.53
2019-01-30T19:12:12.405Z,7.30
2019-01-30T19:14:43.628Z,7.80
2019-01-30T19:17:16.909Z,7.73
2019-01-30T19:19:47.225Z,7.67
2019-01-30T19:22:18.005Z,6.90
2019-01-30T19:24:48.896Z,7.40
2019-01-30T19:27:19.746Z,7.43
2019-01-30T19:29:51.165Z,7.10
2019-01-30T19:32:22.494Z,7.00
2019-01-30T19:34:53.588Z,7.63
2019-01-30T19:37:24.478Z,7.70
2019-01-30T19:39:55.298Z,6.83
2019-01-30T19:42:26.611Z,6.67
2019-01-30T19:44:57.448Z,6.90
2019-01-30T19:47:28.380Z,6.90
2019-01-30T19:49:59.658Z,6.60
2019-01-30T19:52:35.550Z,7.13
2019-01-30T19:55:07.173Z,6.63
2019-01-30T19:57:38.127Z,7.00
2019-01-30T20:00:16.164Z,7.17
2019-01-30T20:02:47.341Z,7.77
2019-01-30T20:05:18.539Z,7.47
2019-01-30T20:07:50.623Z,7.40
2019-01-30T20:10:24.347Z,7.33
2019-01-30T20:12:55.381Z,7.33
2019-01-30T20:15:26.562Z,7.23
2019-01-30T20:17:57.769Z,7.07
2019-01-30T20:20:28.478Z,7.50
2019-01-30T20:22:59.385Z,7.10
2019-01-30T20:25:32.980Z,7.13
2019-01-30T20:28:03.662Z,6.80
2019-01-30T20:30:37.221Z,6.90
2019-01-30T20:33:08.141Z,7.17
2019-01-30T20:35:38.743Z,6.40
2019-01-30T20:38:09.466Z,7.57
2019-01-30T20:40:40.816Z,6.60
2019-01-30T20:43:11.911Z,6.23
2019-01-30T20:45:43.060Z,6.40
2019-01-30T20:48:14.161Z,6.27
2019-01-30T20:50:44.883Z,6.83
2019-01-30T20:53:15.877Z,6.97
2019-01-30T20:55:47.031Z,6.30
2019-01-30T20:58:17.708Z,6.40
2019-01-30T21:00:48.833Z,5.70
2019-01-30T21:03:19.791Z,6.17
2019-01-30T21:05:50.798Z,6.37
2019-01-30T21:08:23.126Z,5.43
2019-01-30T21:10:54.193Z,6.43
2019-01-30T21:13:24.856Z,5.83
2019-01-30T21:15:55.552Z,5.30
2019-01-30T21:18:26.234Z,5.70
2019-01-30T21:20:56.833Z,5.87
2019-01-30T21:23:28.028Z,6.10
2019-01-30T21:25:59.236Z,6.20
2019-01-30T21:28:30.368Z,5.70
2019-01-30T21:31:01.503Z,5.87
2019-01-30T21:33:32.191Z,5.07
2019-01-30T21:36:02.996Z,5.50
2019-01-30T21:38:33.804Z,6.13
2019-01-30T21:41:04.962Z,5.93
2019-01-30T21:43:35.988Z,5.87
2019-01-30T21:46:06.903Z,6.17
2019-01-30T21:48:37.636Z,5.73
2019-01-30T21:51:08.572Z,6.10
2019-01-30T21:53:39.921Z,5.90
2019-01-30T21:56:10.705Z,6.20
2019-01-30T21:58:43.436Z,6.37
2019-01-30T22:01:14.156Z,6.33
2019-01-30T22:03:44.735Z,5.83
2019-01-30T22:06:15.799Z,6.97
2019-01-30T22:08:46.269Z,6.03
2019-01-30T22:11:17.099Z,6.33
2019-01-30T22:13:48.939Z,6.20
2019-01-30T22:16:19.501Z,6.53
2019-01-30T22:18:50.242Z,6.60
2019-01-30T22:21:21.134Z,5.77
2019-01-30T22:23:52.420Z,6.50
2019-01-30T22:26:23.321Z,6.50
2019-01-30T22:28:54.305Z,6.33
2019-01-30T22:31:25.793Z,7.07
2019-01-30T22:33:57.016Z,6.00
2019-01-30T22:36:27.790Z,7.40
2019-01-30T22:38:58.799Z,6.60
2019-01-30T22:41:29.637Z,6.83
2019-01-30T22:44:00.662Z,6.53
2019-01-30T22:46:31.809Z,6.83
2019-01-30T22:49:02.959Z,6.30
2019-01-30T22:51:34.100Z,6.97
2019-01-30T22:54:05.348Z,6.70
2019-01-30T22:56:36.566Z,7.37
2019-01-30T22:59:07.091Z,6.73
2019-01-30T23:01:45.255Z,6.97
2019-01-30T23:04:34.795Z,7.73
2019-01-30T23:07:23.464Z,6.70
2019-01-30T23:10:43.156Z,6.50
2019-01-30T23:13:56.598Z,6.57
2019-01-30T23:17:32.634Z,6.53
2019-01-30T23:20:25.971Z,6.30
2019-01-30T23:23:43.333Z,6.30
2019-01-30T23:26:31.113Z,6.03
2019-01-30T23:29:44.301Z,5.93
2019-01-30T23:33:11.149Z,6.87
2019-01-30T23:36:27.353Z,7.00
2019-01-30T23:39:33.961Z,6.43
2019-01-30T23:42:54.529Z,6.60
2019-01-30T23:45:51.684Z,6.80
2019-01-30T23:49:09.217Z,7.00
2019-01-30T23:51:47.357Z,6.47
2019-01-30T23:54:48.460Z,6.60
2019-01-30T23:57:49.525Z,6.17
